sensor_id;sensor_type;location;lat;lon;timestamp;temperature;humidity
6008;DHT22;3032;49.484;11.112;2023-04-01T00:01:26;9.90;99.90
6008;DHT22;3032;49.484;11.112;2023-04-01T00:03:51;10.00;99.90
6008;DHT22;3032;49.484;11.112;2023-04-01T00:06:18;10.10;99.90
6008;DHT22;3032;49.484;11.112;2023-04-01T00:08:44;9.90;99.90
6008;DHT22;3032;49.484;11.112;2023-04-01T00:11:11;10.00;99.90
6008;DHT22;3032;49.484;11.112;2023-04-01T00:13:36;10.10;99.90
6008;DHT22;3032;49.484;11.112;2023-04-01T00:16:02;10.20;99.90
6008;DHT22;3032;49.484;11.112;2023-04-01T00:18:29;10.30;99.90
6008;DHT22;3032;49.484;11.112;2023-04-01T00:20:55;10.30;99.90
6008;DHT22;3032;49.484;11.112;2023-04-01T00:23:21;10.20;99.90
6008;DHT22;3032;49.484;11.112;2023-04-01T00:25:47;10.30;99.90
6008;DHT22;3032;49.484;11.112;2023-04-01T00:28:18;10.40;99.90
6008;DHT22;3032;49.484;11.112;2023-04-01T00:30:44;10.30;99.90
6008;DHT22;3032;49.484;11.112;2023-04-01T00:33:09;10.30;99.90
6008;DHT22;3032;49.484;11.112;2023-04-01T00:35:35;10.30;99.90
6008;DHT22;3032;49.484;11.112;2023-04-01T00:38:01;10.30;99.90
6008;DHT22;3032;49.484;11.112;2023-04-01T00:40:37;10.40;99.90
6008;DHT22;3032;49.484;11.112;2023-04-01T00:43:08;10.20;99.90
6008;DHT22;3032;49.484;11.112;2023-04-01T00:45:37;10.20;99.90
6008;DHT22;3032;49.484;11.112;2023-04-01T00:48:10;10.30;99.90
6008;DHT22;3032;49.484;11.112;2023-04-01T00:50:37;10.20;99.90
6008;DHT22;3032;49.484;11.112;2023-04-01T00:53:03;10.30;99.90
6008;DHT22;3032;49.484;11.112;2023-04-01T00:55:32;10.40;99.90
6008;DHT22;3032;49.484;11.112;2023-04-01T00:58:00;10.50;99.90
6008;DHT22;3032;49.484;11.112;2023-04-01T01:00:27;10.40;99.90
6008;DHT22;3032;49.484;11.112;2023-04-01T01:02:52;10.30;99.90
6008;DHT22;3032;49.484;11.112;2023-04-01T01:05:23;10.30;99.90
6008;DHT22;3032;49.484;11.112;2023-04-01T01:10:39;10.30;99.90
6008;DHT22;3032;49.484;11.112;2023-04-01T01:13:38;10.40;99.90
6008;DHT22;3032;49.484;11.112;2023-04-01T01:16:21;10.60;99.90
6008;DHT22;3032;49.484;11.112;2023-04-01T01:27:54;10.80;99.90
6008;DHT22;3032;49.484;11.112;2023-04-01T01:30:41;10.70;99.90
6008;DHT22;3032;49.484;11.112;2023-04-01T01:35:50;10.50;99.90
6008;DHT22;3032;49.484;11.112;2023-04-01T01:38:23;10.50;99.90
6008;DHT22;3032;49.484;11.112;2023-04-01T01:40:51;10.60;99.90
6008;DHT22;3032;49.484;11.112;2023-04-01T01:43:22;10.60;99.90
6008;DHT22;3032;49.484;11.112;2023-04-01T01:45:55;10.60;99.90
6008;DHT22;3032;49.484;11.112;2023-04-01T01:48:23;10.70;99.90
6008;DHT22;3032;49.484;11.112;2023-04-01T01:50:50;10.70;99.90
6008;DHT22;3032;49.484;11.112;2023-04-01T01:53:16;10.60;99.90
6008;DHT22;3032;49.484;11.112;2023-04-01T01:55:44;10.70;99.90
6008;DHT22;3032;49.484;11.112;2023-04-01T01:58:25;10.60;99.90
6008;DHT22;3032;49.484;11.112;2023-04-01T02:01:00;10.50;99.90
6008;DHT22;3032;49.484;11.112;2023-04-01T02:03:28;10.50;99.90
6008;DHT22;3032;49.484;11.112;2023-04-01T02:05:56;10.60;99.90
6008;DHT22;3032;49.484;11.112;2023-04-01T02:08:28;10.50;99.90
6008;DHT22;3032;49.484;11.112;2023-04-01T02:11:01;10.60;99.90
6008;DHT22;3032;49.484;11.112;2023-04-01T02:13:58;10.60;99.90
6008;DHT22;3032;49.484;11.112;2023-04-01T02:16:36;10.70;99.90
6008;DHT22;3032;49.484;11.112;2023-04-01T02:19:04;10.70;99.90
6008;DHT22;3032;49.484;11.112;2023-04-01T02:21:33;10.40;99.90
6008;DHT22;3032;49.484;11.112;2023-04-01T02:24:02;10.40;99.90
6008;DHT22;3032;49.484;11.112;2023-04-01T02:26:29;10.50;99.90
6008;DHT22;3032;49.484;11.112;2023-04-01T02:28:56;10.50;99.90
6008;DHT22;3032;49.484;11.112;2023-04-01T02:31:23;10.60;99.90
6008;DHT22;3032;49.484;11.112;2023-04-01T02:33:49;10.60;99.90
6008;DHT22;3032;49.484;11.112;2023-04-01T02:36:15;10.60;99.90
6008;DHT22;3032;49.484;11.112;2023-04-01T02:38:42;10.50;99.90
6008;DHT22;3032;49.484;11.112;2023-04-01T02:41:10;10.40;99.90
6008;DHT22;3032;49.484;11.112;2023-04-01T02:43:35;10.40;99.90
6008;DHT22;3032;49.484;11.112;2023-04-01T02:46:02;10.40;99.90
6008;DHT22;3032;49.484;11.112;2023-04-01T02:48:28;10.40;99.90
6008;DHT22;3032;49.484;11.112;2023-04-01T02:50:54;10.70;99.90
6008;DHT22;3032;49.484;11.112;2023-04-01T02:53:24;10.50;99.90
6008;DHT22;3032;49.484;11.112;2023-04-01T02:55:49;10.70;99.90
6008;DHT22;3032;49.484;11.112;2023-04-01T02:58:17;10.90;99.90
6008;DHT22;3032;49.484;11.112;2023-04-01T03:00:42;10.90;99.90
6008;DHT22;3032;49.484;11.112;2023-04-01T03:03:08;10.80;99.90
6008;DHT22;3032;49.484;11.112;2023-04-01T03:05:34;10.80;99.90
6008;DHT22;3032;49.484;11.112;2023-04-01T03:07:59;10.90;99.90
6008;DHT22;3032;49.484;11.112;2023-04-01T03:10:25;10.80;99.90
6008;DHT22;3032;49.484;11.112;2023-04-01T03:12:51;10.70;99.90
6008;DHT22;3032;49.484;11.112;2023-04-01T03:15:16;10.50;99.90
6008;DHT22;3032;49.484;11.112;2023-04-01T03:17:43;10.40;99.90
6008;DHT22;3032;49.484;11.112;2023-04-01T03:20:09;10.70;99.90
6008;DHT22;3032;49.484;11.112;2023-04-01T03:22:36;10.70;99.90
6008;DHT22;3032;49.484;11.112;2023-04-01T03:25:03;10.60;99.90
6008;DHT22;3032;49.484;11.112;2023-04-01T03:27:28;10.50;99.90
6008;DHT22;3032;49.484;11.112;2023-04-01T03:29:54;10.30;99.90
6008;DHT22;3032;49.484;11.112;2023-04-01T03:32:20;10.40;99.90
6008;DHT22;3032;49.484;11.112;2023-04-01T03:34:45;10.40;99.90
6008;DHT22;3032;49.484;11.112;2023-04-01T03:37:11;10.50;99.90
6008;DHT22;3032;49.484;11.112;2023-04-01T03:39:36;10.60;99.90
6008;DHT22;3032;49.484;11.112;2023-04-01T03:42:02;10.60;99.90
6008;DHT22;3032;49.484;11.112;2023-04-01T03:44:32;10.60;99.90
6008;DHT22;3032;49.484;11.112;2023-04-01T03:46:58;10.70;99.90
6008;DHT22;3032;49.484;11.112;2023-04-01T03:49:23;10.60;99.90
6008;DHT22;3032;49.484;11.112;2023-04-01T03:51:49;10.60;99.90
6008;DHT22;3032;49.484;11.112;2023-04-01T03:54:14;10.80;99.90
6008;DHT22;3032;49.484;11.112;2023-04-01T03:56:40;10.80;99.90
6008;DHT22;3032;49.484;11.112;2023-04-01T03:59:07;10.90;99.90
6008;DHT22;3032;49.484;11.112;2023-04-01T04:01:34;11.00;99.90
6008;DHT22;3032;49.484;11.112;2023-04-01T04:04:00;10.90;99.90
6008;DHT22;3032;49.484;11.112;2023-04-01T04:06:26;10.60;99.90
6008;DHT22;3032;49.484;11.112;2023-04-01T04:08:53;10.60;99.90
6008;DHT22;3032;49.484;11.112;2023-04-01T04:11:20;10.70;99.90
6008;DHT22;3032;49.484;11.112;2023-04-01T04:13:46;10.80;99.90
6008;DHT22;3032;49.484;11.112;2023-04-01T04:16:14;10.80;99.90
6008;DHT22;3032;49.484;11.112;2023-04-01T04:18:40;10.70;99.90
6008;DHT22;3032;49.484;11.112;2023-04-01T04:21:06;10.60;99.90
6008;DHT22;3032;49.484;11.112;2023-04-01T04:23:31;10.40;99.90
6008;DHT22;3032;49.484;11.112;2023-04-01T04:26:03;10.30;99.90
6008;DHT22;3032;49.484;11.112;2023-04-01T04:28:29;10.40;99.90
6008;DHT22;3032;49.484;11.112;2023-04-01T04:30:55;10.40;99.90
6008;DHT22;3032;49.484;11.112;2023-04-01T04:33:22;10.40;99.90
6008;DHT22;3032;49.484;11.112;2023-04-01T04:35:49;10.80;99.90
6008;DHT22;3032;49.484;11.112;2023-04-01T04:38:15;10.60;99.90
6008;DHT22;3032;49.484;11.112;2023-04-01T04:40:41;10.60;99.90
6008;DHT22;3032;49.484;11.112;2023-04-01T04:43:08;10.60;99.90
6008;DHT22;3032;49.484;11.112;2023-04-01T04:45:35;10.40;99.90
6008;DHT22;3032;49.484;11.112;2023-04-01T04:48:00;10.40;99.90
6008;DHT22;3032;49.484;11.112;2023-04-01T04:50:26;10.50;99.90
6008;DHT22;3032;49.484;11.112;2023-04-01T04:52:51;10.70;99.90
6008;DHT22;3032;49.484;11.112;2023-04-01T04:55:17;10.60;99.90
6008;DHT22;3032;49.484;11.112;2023-04-01T04:57:43;10.50;99.90
6008;DHT22;3032;49.484;11.112;2023-04-01T05:00:08;10.60;99.90
6008;DHT22;3032;49.484;11.112;2023-04-01T05:02:35;10.60;99.90
6008;DHT22;3032;49.484;11.112;2023-04-01T05:05:01;10.50;99.90
6008;DHT22;3032;49.484;11.112;2023-04-01T05:07:27;10.20;99.90
6008;DHT22;3032;49.484;11.112;2023-04-01T05:09:52;10.20;99.90
6008;DHT22;3032;49.484;11.112;2023-04-01T05:12:18;10.20;99.90
6008;DHT22;3032;49.484;11.112;2023-04-01T05:14:44;10.30;99.90
6008;DHT22;3032;49.484;11.112;2023-04-01T05:17:13;10.30;99.90
6008;DHT22;3032;49.484;11.112;2023-04-01T05:19:39;10.20;99.90
6008;DHT22;3032;49.484;11.112;2023-04-01T05:22:05;10.30;99.90
6008;DHT22;3032;49.484;11.112;2023-04-01T05:24:31;10.40;99.90
6008;DHT22;3032;49.484;11.112;2023-04-01T05:26:57;10.50;99.90
6008;DHT22;3032;49.484;11.112;2023-04-01T05:29:24;10.30;99.90
6008;DHT22;3032;49.484;11.112;2023-04-01T05:31:49;10.20;99.90
6008;DHT22;3032;49.484;11.112;2023-04-01T05:34:15;10.30;99.90
6008;DHT22;3032;49.484;11.112;2023-04-01T05:36:41;10.30;99.90
6008;DHT22;3032;49.484;11.112;2023-04-01T05:39:08;10.20;99.90
6008;DHT22;3032;49.484;11.112;2023-04-01T05:41:37;10.10;99.90
6008;DHT22;3032;49.484;11.112;2023-04-01T05:44:03;10.10;99.90
6008;DHT22;3032;49.484;11.112;2023-04-01T05:46:29;10.20;99.90
6008;DHT22;3032;49.484;11.112;2023-04-01T05:48:55;10.30;99.90
6008;DHT22;3032;49.484;11.112;2023-04-01T05:51:20;10.40;99.90
6008;DHT22;3032;49.484;11.112;2023-04-01T05:53:46;10.50;99.90
6008;DHT22;3032;49.484;11.112;2023-04-01T05:56:12;10.50;99.90
6008;DHT22;3032;49.484;11.112;2023-04-01T05:58:38;10.50;99.90
6008;DHT22;3032;49.484;11.112;2023-04-01T06:01:06;10.50;99.90
6008;DHT22;3032;49.484;11.112;2023-04-01T06:03:32;10.40;99.90
6008;DHT22;3032;49.484;11.112;2023-04-01T06:05:58;10.50;99.90
6008;DHT22;3032;49.484;11.112;2023-04-01T06:08:24;10.40;99.90
6008;DHT22;3032;49.484;11.112;2023-04-01T06:16:38;10.50;99.90
6008;DHT22;3032;49.484;11.112;2023-04-01T06:19:14;10.70;99.90
6008;DHT22;3032;49.484;11.112;2023-04-01T06:24:48;10.80;99.90
6008;DHT22;3032;49.484;11.112;2023-04-01T06:27:38;11.10;99.90
6008;DHT22;3032;49.484;11.112;2023-04-01T06:46:52;12.20;99.90
6008;DHT22;3032;49.484;11.112;2023-04-01T06:54:54;12.80;99.90
6008;DHT22;3032;49.484;11.112;2023-04-01T06:59:56;12.40;99.90
6008;DHT22;3032;49.484;11.112;2023-04-01T07:02:35;12.20;99.90
6008;DHT22;3032;49.484;11.112;2023-04-01T07:05:04;12.40;99.90
6008;DHT22;3032;49.484;11.112;2023-04-01T07:10:02;12.50;99.90
6008;DHT22;3032;49.484;11.112;2023-04-01T07:15:00;12.30;99.90
6008;DHT22;3032;49.484;11.112;2023-04-01T07:17:32;12.20;99.90
6008;DHT22;3032;49.484;11.112;2023-04-01T07:20:03;12.30;99.90
6008;DHT22;3032;49.484;11.112;2023-04-01T07:22:38;12.30;99.90
6008;DHT22;3032;49.484;11.112;2023-04-01T07:25:19;12.10;99.90
6008;DHT22;3032;49.484;11.112;2023-04-01T07:27:46;12.20;99.90
6008;DHT22;3032;49.484;11.112;2023-04-01T07:32:55;12.20;99.90
6008;DHT22;3032;49.484;11.112;2023-04-01T07:35:30;12.50;99.90
6008;DHT22;3032;49.484;11.112;2023-04-01T07:40:55;12.00;99.90
6008;DHT22;3032;49.484;11.112;2023-04-01T07:43:32;12.10;99.90
6008;DHT22;3032;49.484;11.112;2023-04-01T07:48:57;12.50;99.90
6008;DHT22;3032;49.484;11.112;2023-04-01T07:51:29;12.40;99.90
6008;DHT22;3032;49.484;11.112;2023-04-01T07:57:07;12.50;99.90
6008;DHT22;3032;49.484;11.112;2023-04-01T07:59:44;12.20;99.90
6008;DHT22;3032;49.484;11.112;2023-04-01T08:05:11;12.60;99.90
6008;DHT22;3032;49.484;11.112;2023-04-01T08:16:12;12.80;99.90
6008;DHT22;3032;49.484;11.112;2023-04-01T08:21:52;12.90;99.90
6008;DHT22;3032;49.484;11.112;2023-04-01T08:24:49;12.90;99.90
6008;DHT22;3032;49.484;11.112;2023-04-01T08:32:56;12.50;99.90
6008;DHT22;3032;49.484;11.112;2023-04-01T08:35:38;12.70;99.90
6008;DHT22;3032;49.484;11.112;2023-04-01T08:38:23;12.80;99.90
6008;DHT22;3032;49.484;11.112;2023-04-01T08:41:25;12.60;99.90
6008;DHT22;3032;49.484;11.112;2023-04-01T08:46:43;12.40;99.90
6008;DHT22;3032;49.484;11.112;2023-04-01T08:49:36;12.30;99.90
6008;DHT22;3032;49.484;11.112;2023-04-01T08:55:02;12.50;99.90
6008;DHT22;3032;49.484;11.112;2023-04-01T09:00:24;12.50;99.90
6008;DHT22;3032;49.484;11.112;2023-04-01T09:05:48;12.20;99.90
6008;DHT22;3032;49.484;11.112;2023-04-01T09:11:21;12.10;99.90
6008;DHT22;3032;49.484;11.112;2023-04-01T09:17:39;12.40;99.90
6008;DHT22;3032;49.484;11.112;2023-04-01T09:28:18;12.50;99.90
6008;DHT22;3032;49.484;11.112;2023-04-01T09:31:04;12.40;99.90
6008;DHT22;3032;49.484;11.112;2023-04-01T09:39:25;12.70;99.90
6008;DHT22;3032;49.484;11.112;2023-04-01T09:44:37;12.60;99.90
6008;DHT22;3032;49.484;11.112;2023-04-01T09:52:51;13.20;99.90
6008;DHT22;3032;49.484;11.112;2023-04-01T10:26:50;11.30;99.90
6008;DHT22;3032;49.484;11.112;2023-04-01T10:30:02;11.40;99.90
6008;DHT22;3032;49.484;11.112;2023-04-01T10:33:05;11.20;99.90
6008;DHT22;3032;49.484;11.112;2023-04-01T10:38:37;11.60;99.90
6008;DHT22;3032;49.484;11.112;2023-04-01T10:41:58;11.90;99.90
6008;DHT22;3032;49.484;11.112;2023-04-01T11:19:09;11.20;99.90
6008;DHT22;3032;49.484;11.112;2023-04-01T11:21:53;11.20;99.90
6008;DHT22;3032;49.484;11.112;2023-04-01T11:29:46;11.20;99.90
6008;DHT22;3032;49.484;11.112;2023-04-01T11:38:26;11.50;99.90
6008;DHT22;3032;49.484;11.112;2023-04-01T11:41:19;11.50;99.90
6008;DHT22;3032;49.484;11.112;2023-04-01T11:43:59;11.40;99.90
6008;DHT22;3032;49.484;11.112;2023-04-01T11:46:46;11.30;99.90
6008;DHT22;3032;49.484;11.112;2023-04-01T11:49:34;11.30;99.90
6008;DHT22;3032;49.484;11.112;2023-04-01T11:55:08;11.00;99.90
6008;DHT22;3032;49.484;11.112;2023-04-01T12:05:58;10.70;99.90
6008;DHT22;3032;49.484;11.112;2023-04-01T12:14:06;11.40;99.90
6008;DHT22;3032;49.484;11.112;2023-04-01T12:30:24;11.30;99.90
6008;DHT22;3032;49.484;11.112;2023-04-01T12:33:03;11.50;99.90
6008;DHT22;3032;49.484;11.112;2023-04-01T12:35:55;11.40;99.90
6008;DHT22;3032;49.484;11.112;2023-04-01T12:41:34;11.10;99.90
6008;DHT22;3032;49.484;11.112;2023-04-01T12:49:43;11.20;99.90
6008;DHT22;3032;49.484;11.112;2023-04-01T12:52:18;11.20;99.90
6008;DHT22;3032;49.484;11.112;2023-04-01T12:57:46;10.90;99.90
6008;DHT22;3032;49.484;11.112;2023-04-01T13:06:20;11.20;99.90
6008;DHT22;3032;49.484;11.112;2023-04-01T13:11:48;11.60;99.90
6008;DHT22;3032;49.484;11.112;2023-04-01T13:27:58;11.70;99.90
6008;DHT22;3032;49.484;11.112;2023-04-01T13:30:32;11.70;99.90
6008;DHT22;3032;49.484;11.112;2023-04-01T13:36:03;11.60;99.90
6008;DHT22;3032;49.484;11.112;2023-04-01T13:38:58;11.50;99.90
6008;DHT22;3032;49.484;11.112;2023-04-01T13:41:39;11.70;99.90
6008;DHT22;3032;49.484;11.112;2023-04-01T13:44:16;12.00;99.90
6008;DHT22;3032;49.484;11.112;2023-04-01T14:00:54;12.20;99.90
6008;DHT22;3032;49.484;11.112;2023-04-01T14:03:28;12.30;99.90
6008;DHT22;3032;49.484;11.112;2023-04-01T14:12:04;11.60;99.90
6008;DHT22;3032;49.484;11.112;2023-04-01T14:17:21;11.50;99.90
6008;DHT22;3032;49.484;11.112;2023-04-01T14:23:15;11.30;99.90
6008;DHT22;3032;49.484;11.112;2023-04-01T14:28:25;11.00;99.90
6008;DHT22;3032;49.484;11.112;2023-04-01T14:31:20;11.20;99.90
6008;DHT22;3032;49.484;11.112;2023-04-01T14:39:49;10.90;99.90
6008;DHT22;3032;49.484;11.112;2023-04-01T14:42:38;10.80;99.90
6008;DHT22;3032;49.484;11.112;2023-04-01T14:48:32;10.80;99.90
6008;DHT22;3032;49.484;11.112;2023-04-01T14:51:22;10.70;99.90
6008;DHT22;3032;49.484;11.112;2023-04-01T14:54:04;10.70;99.90
6008;DHT22;3032;49.484;11.112;2023-04-01T14:56:42;10.60;99.90
6008;DHT22;3032;49.484;11.112;2023-04-01T15:02:03;10.90;99.90
6008;DHT22;3032;49.484;11.112;2023-04-01T15:04:46;11.20;99.90
6008;DHT22;3032;49.484;11.112;2023-04-01T15:13:19;11.10;99.90
6008;DHT22;3032;49.484;11.112;2023-04-01T15:24:24;11.00;99.90
6008;DHT22;3032;49.484;11.112;2023-04-01T15:29:56;11.30;99.90
6008;DHT22;3032;49.484;11.112;2023-04-01T15:34:57;11.40;99.90
6008;DHT22;3032;49.484;11.112;2023-04-01T15:37:45;11.40;99.90
6008;DHT22;3032;49.484;11.112;2023-04-01T16:02:45;11.10;99.90
6008;DHT22;3032;49.484;11.112;2023-04-01T16:04:57;11.00;99.90
6008;DHT22;3032;49.484;11.112;2023-04-01T16:22:00;10.80;99.90
6008;DHT22;3032;49.484;11.112;2023-04-01T16:27:42;10.40;99.90
6008;DHT22;3032;49.484;11.112;2023-04-01T16:36:10;10.70;99.90
6008;DHT22;3032;49.484;11.112;2023-04-01T16:44:49;10.40;99.90
6008;DHT22;3032;49.484;11.112;2023-04-01T16:47:27;10.60;99.90
6008;DHT22;3032;49.484;11.112;2023-04-01T16:50:39;10.80;99.90
6008;DHT22;3032;49.484;11.112;2023-04-01T16:53:14;10.50;99.90
6008;DHT22;3032;49.484;11.112;2023-04-01T16:55:50;10.50;99.90
6008;DHT22;3032;49.484;11.112;2023-04-01T16:58:23;10.70;99.90
6008;DHT22;3032;49.484;11.112;2023-04-01T17:00:55;10.70;99.90
6008;DHT22;3032;49.484;11.112;2023-04-01T17:03:45;10.60;99.90
6008;DHT22;3032;49.484;11.112;2023-04-01T17:22:34;10.40;99.90
6008;DHT22;3032;49.484;11.112;2023-04-01T17:27:58;10.50;99.90
6008;DHT22;3032;49.484;11.112;2023-04-01T17:30:28;10.30;99.90
6008;DHT22;3032;49.484;11.112;2023-04-01T17:35:56;10.40;99.90
6008;DHT22;3032;49.484;11.112;2023-04-01T17:38:30;10.50;99.90
6008;DHT22;3032;49.484;11.112;2023-04-01T17:41:09;10.50;99.90
6008;DHT22;3032;49.484;11.112;2023-04-01T17:43:57;10.40;99.90
6008;DHT22;3032;49.484;11.112;2023-04-01T17:49:47;10.50;99.90
6008;DHT22;3032;49.484;11.112;2023-04-01T17:52:27;10.60;99.90
6008;DHT22;3032;49.484;11.112;2023-04-01T18:06:36;10.90;99.90
6008;DHT22;3032;49.484;11.112;2023-04-01T18:09:27;10.80;99.90
6008;DHT22;3032;49.484;11.112;2023-04-01T18:17:24;10.60;99.90
6008;DHT22;3032;49.484;11.112;2023-04-01T18:20:18;10.50;99.90
6008;DHT22;3032;49.484;11.112;2023-04-01T18:22:57;10.50;99.90
6008;DHT22;3032;49.484;11.112;2023-04-01T18:25:33;10.60;99.90
6008;DHT22;3032;49.484;11.112;2023-04-01T18:28:35;10.60;99.90
6008;DHT22;3032;49.484;11.112;2023-04-01T18:31:05;10.60;99.90
6008;DHT22;3032;49.484;11.112;2023-04-01T18:42:16;10.80;99.90
6008;DHT22;3032;49.484;11.112;2023-04-01T18:44:56;10.80;99.90
6008;DHT22;3032;49.484;11.112;2023-04-01T18:47:43;10.90;99.90
6008;DHT22;3032;49.484;11.112;2023-04-01T18:53:12;10.90;99.90
6008;DHT22;3032;49.484;11.112;2023-04-01T18:55:52;11.00;99.90
6008;DHT22;3032;49.484;11.112;2023-04-01T19:06:45;11.00;99.90
6008;DHT22;3032;49.484;11.112;2023-04-01T19:12:18;10.80;99.90
6008;DHT22;3032;49.484;11.112;2023-04-01T19:17:52;10.70;99.90
6008;DHT22;3032;49.484;11.112;2023-04-01T19:20:46;11.00;99.90
6008;DHT22;3032;49.484;11.112;2023-04-01T19:25:56;10.90;99.90
6008;DHT22;3032;49.484;11.112;2023-04-01T19:28:50;11.00;99.90
6008;DHT22;3032;49.484;11.112;2023-04-01T19:37:39;10.80;99.90
6008;DHT22;3032;49.484;11.112;2023-04-01T19:48:33;10.90;99.90
6008;DHT22;3032;49.484;11.112;2023-04-01T19:51:09;10.90;99.90
6008;DHT22;3032;49.484;11.112;2023-04-01T19:56:16;11.10;99.90
6008;DHT22;3032;49.484;11.112;2023-04-01T19:59:10;11.10;99.90
6008;DHT22;3032;49.484;11.112;2023-04-01T20:01:44;11.10;99.90
6008;DHT22;3032;49.484;11.112;2023-04-01T20:05:23;11.20;99.90
6008;DHT22;3032;49.484;11.112;2023-04-01T20:08:15;11.30;99.90
6008;DHT22;3032;49.484;11.112;2023-04-01T20:10:35;10.90;99.90
6008;DHT22;3032;49.484;11.112;2023-04-01T20:15:41;11.00;99.90
6008;DHT22;3032;49.484;11.112;2023-04-01T20:18:33;11.00;99.90
6008;DHT22;3032;49.484;11.112;2023-04-01T20:21:03;11.00;99.90
6008;DHT22;3032;49.484;11.112;2023-04-01T20:23:40;11.40;99.90
6008;DHT22;3032;49.484;11.112;2023-04-01T20:26:14;10.80;99.90
6008;DHT22;3032;49.484;11.112;2023-04-01T20:31:34;10.90;99.90
6008;DHT22;3032;49.484;11.112;2023-04-01T20:34:32;10.90;99.90
6008;DHT22;3032;49.484;11.112;2023-04-01T20:39:40;10.90;99.90
6008;DHT22;3032;49.484;11.112;2023-04-01T20:42:41;11.10;99.90
6008;DHT22;3032;49.484;11.112;2023-04-01T20:45:31;11.10;99.90
6008;DHT22;3032;49.484;11.112;2023-04-01T20:48:21;11.00;99.90
6008;DHT22;3032;49.484;11.112;2023-04-01T20:50:57;11.10;99.90
6008;DHT22;3032;49.484;11.112;2023-04-01T20:53:36;11.20;99.90
6008;DHT22;3032;49.484;11.112;2023-04-01T20:56:43;11.30;99.90
6008;DHT22;3032;49.484;11.112;2023-04-01T21:07:50;11.10;99.90
6008;DHT22;3032;49.484;11.112;2023-04-01T21:13:13;11.30;99.90
6008;DHT22;3032;49.484;11.112;2023-04-01T21:32:18;11.30;99.90
6008;DHT22;3032;49.484;11.112;2023-04-01T21:38:22;11.20;99.90
6008;DHT22;3032;49.484;11.112;2023-04-01T21:57:52;10.70;99.90
6008;DHT22;3032;49.484;11.112;2023-04-01T22:00:32;10.70;99.90
6008;DHT22;3032;49.484;11.112;2023-04-01T22:06:21;10.80;99.90
6008;DHT22;3032;49.484;11.112;2023-04-01T22:08:55;10.90;99.90
6008;DHT22;3032;49.484;11.112;2023-04-01T22:14:25;10.80;99.90
6008;DHT22;3032;49.484;11.112;2023-04-01T22:17:15;11.10;99.90
6008;DHT22;3032;49.484;11.112;2023-04-01T22:20:13;11.00;99.90
6008;DHT22;3032;49.484;11.112;2023-04-01T22:28:21;11.20;99.90
6008;DHT22;3032;49.484;11.112;2023-04-01T22:30:52;10.90;99.90
6008;DHT22;3032;49.484;11.112;2023-04-01T22:33:42;10.70;99.90
6008;DHT22;3032;49.484;11.112;2023-04-01T22:41:53;10.90;99.90
6008;DHT22;3032;49.484;11.112;2023-04-01T22:44:28;10.70;99.90
6008;DHT22;3032;49.484;11.112;2023-04-01T22:47:04;10.60;99.90
6008;DHT22;3032;49.484;11.112;2023-04-01T22:49:46;11.10;99.90
6008;DHT22;3032;49.484;11.112;2023-04-01T22:55:11;10.60;99.90
6008;DHT22;3032;49.484;11.112;2023-04-01T23:00:28;10.70;99.90
6008;DHT22;3032;49.484;11.112;2023-04-01T23:05:49;10.80;99.90
6008;DHT22;3032;49.484;11.112;2023-04-01T23:11:06;10.70;99.90
6008;DHT22;3032;49.484;11.112;2023-04-01T23:13:38;10.50;99.90
6008;DHT22;3032;49.484;11.112;2023-04-01T23:16:05;10.30;99.90
6008;DHT22;3032;49.484;11.112;2023-04-01T23:18:52;10.40;99.90
6008;DHT22;3032;49.484;11.112;2023-04-01T23:24:36;10.70;99.90
6008;DHT22;3032;49.484;11.112;2023-04-01T23:27:12;10.50;99.90
6008;DHT22;3032;49.484;11.112;2023-04-01T23:29:42;10.50;99.90
6008;DHT22;3032;49.484;11.112;2023-04-01T23:32:18;10.30;99.90
6008;DHT22;3032;49.484;11.112;2023-04-01T23:34:53;10.60;99.90
6008;DHT22;3032;49.484;11.112;2023-04-01T23:37:21;10.70;99.90
6008;DHT22;3032;49.484;11.112;2023-04-01T23:39:55;10.90;99.90
6008;DHT22;3032;49.484;11.112;2023-04-01T23:42:25;11.20;99.90
6008;DHT22;3032;49.484;11.112;2023-04-01T23:44:56;11.10;99.90
6008;DHT22;3032;49.484;11.112;2023-04-01T23:47:30;11.20;99.90
6008;DHT22;3032;49.484;11.112;2023-04-01T23:50:06;11.20;99.90
6008;DHT22;3032;49.484;11.112;2023-04-01T23:52:40;11.00;99.90
6008;DHT22;3032;49.484;11.112;2023-04-01T23:55:26;11.00;99.90
